createdAt,value
2023-02-27T00:02:15.773Z,-0.20
2023-02-27T00:04:44.070Z,-0.20
2023-02-27T00:07:10.753Z,-0.30
2023-02-27T00:09:37.648Z,-0.30
2023-02-27T00:12:04.412Z,-0.30
2023-02-27T00:14:31.107Z,-0.20
2023-02-27T00:16:57.777Z,-0.20
2023-02-27T00:19:24.760Z,-0.20
2023-02-27T00:21:52.963Z,-0.20
2023-02-27T00:24:19.699Z,-0.20
2023-02-27T00:26:46.397Z,-0.30
2023-02-27T00:29:13.714Z,-0.20
2023-02-27T00:31:40.438Z,-0.20
2023-02-27T00:34:07.234Z,-0.30
2023-02-27T00:36:33.966Z,-0.30
2023-02-27T00:39:02.116Z,-0.40
2023-02-27T00:41:29.076Z,-0.30
2023-02-27T00:43:55.890Z,-0.30
2023-02-27T00:46:22.683Z,-0.30
2023-02-27T00:48:49.491Z,-0.30
2023-02-27T00:51:16.249Z,-0.30
2023-02-27T00:53:42.992Z,-0.40
2023-02-27T00:56:11.093Z,-0.40
2023-02-27T00:58:37.824Z,-0.40
2023-02-27T01:01:04.898Z,-0.40
2023-02-27T01:03:31.957Z,-0.40
2023-02-27T01:05:58.779Z,-0.40
2023-02-27T01:08:25.774Z,-0.40
2023-02-27T01:10:54.494Z,-0.40
2023-02-27T01:13:23.209Z,-0.40
2023-02-27T01:15:50.240Z,-0.30
2023-02-27T01:18:17.023Z,-0.30
2023-02-27T01:20:43.767Z,-0.30
2023-02-27T01:23:10.503Z,-0.30
2023-02-27T01:25:37.224Z,-0.30
2023-02-27T01:28:04.290Z,-0.40
2023-02-27T01:30:32.353Z,-0.40
2023-02-27T01:32:59.061Z,-0.40
2023-02-27T01:35:25.790Z,-0.40
2023-02-27T01:37:52.501Z,-0.30
2023-02-27T01:40:19.465Z,-0.30
2023-02-27T01:42:46.165Z,-0.30
2023-02-27T01:45:33.142Z,-0.30
2023-02-27T01:48:05.594Z,-0.30
2023-02-27T01:50:34.834Z,-0.20
2023-02-27T01:53:03.006Z,-0.30
2023-02-27T01:55:33.439Z,-0.30
2023-02-27T01:58:00.840Z,-0.30
2023-02-27T02:00:27.604Z,-0.20
2023-02-27T02:03:01.186Z,-0.20
2023-02-27T02:05:29.244Z,-0.30
2023-02-27T02:07:57.045Z,-0.30
2023-02-27T02:10:25.617Z,-0.20
2023-02-27T02:12:52.586Z,-0.20
2023-02-27T02:15:21.573Z,-0.20
2023-02-27T02:18:01.633Z,-0.30
2023-02-27T02:21:08.177Z,-0.20
2023-02-27T02:24:11.345Z,-0.20
2023-02-27T02:26:47.876Z,-0.30
2023-02-27T02:29:56.473Z,-0.30
2023-02-27T02:32:51.760Z,-0.30
2023-02-27T02:35:51.275Z,-0.30
2023-02-27T02:38:50.779Z,-0.30
2023-02-27T02:41:26.596Z,-0.30
2023-02-27T02:44:02.133Z,-0.30
2023-02-27T02:46:34.178Z,-0.30
2023-02-27T02:49:09.551Z,-0.30
2023-02-27T02:51:40.052Z,-0.30
2023-02-27T02:54:14.437Z,-0.40
2023-02-27T02:56:49.110Z,-0.30
2023-02-27T02:59:20.938Z,-0.20
2023-02-27T03:01:52.337Z,-0.20
2023-02-27T03:04:25.436Z,-0.30
2023-02-27T03:06:56.347Z,-0.30
2023-02-27T03:09:31.225Z,-0.30
2023-02-27T03:11:59.648Z,-0.30
2023-02-27T03:14:30.397Z,-0.30
2023-02-27T03:17:02.052Z,-0.30
2023-02-27T03:19:33.280Z,-0.30
2023-02-27T03:22:03.150Z,-0.30
2023-02-27T03:24:35.646Z,-0.30
2023-02-27T03:27:03.810Z,-0.30
2023-02-27T03:29:35.602Z,-0.20
2023-02-27T03:32:07.855Z,-0.30
2023-02-27T03:34:37.030Z,-0.30
2023-02-27T03:37:08.126Z,-0.30
2023-02-27T03:39:45.272Z,-0.40
2023-02-27T03:42:23.799Z,-0.40
2023-02-27T03:44:57.148Z,-0.40
2023-02-27T03:47:24.077Z,-0.40
2023-02-27T03:49:51.156Z,-0.30
2023-02-27T03:52:19.464Z,-0.30
2023-02-27T03:54:53.129Z,-0.30
2023-02-27T03:57:20.268Z,-0.30
2023-02-27T03:59:47.089Z,-0.30
2023-02-27T04:02:13.952Z,-0.20
2023-02-27T04:04:40.710Z,-0.30
2023-02-27T04:07:14.444Z,-0.30
2023-02-27T04:10:03.405Z,-0.30
2023-02-27T04:12:49.416Z,-0.30
2023-02-27T04:15:27.366Z,-0.30
2023-02-27T04:18:01.668Z,-0.30
2023-02-27T04:20:43.219Z,-0.30
2023-02-27T04:23:15.021Z,-0.30
2023-02-27T04:25:51.961Z,-0.20
2023-02-27T04:28:25.717Z,-0.30
2023-02-27T04:31:05.707Z,-0.30
2023-02-27T04:33:43.246Z,-0.30
2023-02-27T04:36:13.981Z,-0.30
2023-02-27T04:38:46.311Z,-0.30
2023-02-27T04:41:21.286Z,-0.40
2023-02-27T04:43:49.509Z,-0.30
2023-02-27T04:46:19.235Z,-0.30
2023-02-27T04:48:54.007Z,-0.30
2023-02-27T04:51:24.627Z,-0.40
2023-02-27T04:53:56.264Z,-0.30
2023-02-27T04:56:29.476Z,-0.30
2023-02-27T04:58:59.761Z,-0.40
2023-02-27T05:01:43.557Z,-0.30
2023-02-27T05:04:14.695Z,-0.30
2023-02-27T05:06:44.304Z,-0.30
2023-02-27T05:09:16.542Z,-0.30
2023-02-27T05:11:50.838Z,-0.30
2023-02-27T05:14:20.278Z,-0.40
2023-02-27T05:16:51.829Z,-0.40
2023-02-27T05:19:19.332Z,-0.30
2023-02-27T05:21:51.764Z,-0.30
2023-02-27T05:24:25.489Z,-0.30
2023-02-27T05:27:10.058Z,-0.30
2023-02-27T05:29:44.452Z,-0.30
2023-02-27T05:32:19.255Z,-0.30
2023-02-27T05:34:51.942Z,-0.40
2023-02-27T05:37:23.201Z,-0.40
2023-02-27T05:39:52.575Z,-0.40
2023-02-27T05:42:25.599Z,-0.40
2023-02-27T05:44:57.548Z,-0.40
2023-02-27T05:47:29.392Z,-0.50
2023-02-27T05:50:01.911Z,-0.40
2023-02-27T05:52:31.772Z,-0.50
2023-02-27T05:55:02.617Z,-0.40
2023-02-27T05:57:37.343Z,-0.40
2023-02-27T06:00:10.725Z,-0.50
2023-02-27T06:02:38.030Z,-0.40
2023-02-27T06:05:05.562Z,-0.40
2023-02-27T06:07:33.786Z,-0.50
2023-02-27T06:10:01.257Z,-0.50
2023-02-27T06:12:28.002Z,-0.50
2023-02-27T06:14:56.079Z,-0.50
2023-02-27T06:17:22.803Z,-0.60
2023-02-27T06:19:49.554Z,-0.60
2023-02-27T06:22:16.273Z,-0.60
2023-02-27T06:24:42.982Z,-0.60
2023-02-27T06:27:09.701Z,-0.60
2023-02-27T06:29:36.422Z,-0.60
2023-02-27T06:32:04.620Z,-0.60
2023-02-27T06:34:31.434Z,-0.60
2023-02-27T06:36:58.145Z,-0.60
2023-02-27T06:39:24.869Z,-0.50
2023-02-27T06:41:51.588Z,-0.50
2023-02-27T06:44:19.547Z,-0.50
2023-02-27T06:46:46.447Z,-0.50
2023-02-27T06:49:14.623Z,-0.50
2023-02-27T06:51:47.483Z,-0.60
2023-02-27T06:54:14.328Z,-0.60
2023-02-27T06:56:41.036Z,-0.60
2023-02-27T06:59:07.881Z,-0.50
2023-02-27T07:01:34.728Z,-0.50
2023-02-27T07:04:01.453Z,-0.50
2023-02-27T07:07:32.666Z,-0.60
2023-02-27T07:09:16.222Z,-0.60
2023-02-27T07:11:42.938Z,-0.50
2023-02-27T07:14:09.662Z,-0.50
2023-02-27T07:16:36.415Z,-0.50
2023-02-27T07:19:03.163Z,-0.50
2023-02-27T07:21:31.294Z,-0.60
2023-02-27T07:23:58.018Z,-0.50
2023-02-27T07:26:24.840Z,-0.50
2023-02-27T07:28:51.572Z,-0.50
2023-02-27T07:31:18.411Z,-0.50
2023-02-27T07:33:45.206Z,-0.50
2023-02-27T07:36:11.954Z,-0.50
2023-02-27T07:38:40.032Z,-0.40
2023-02-27T07:41:06.763Z,-0.40
2023-02-27T07:43:33.521Z,-0.50
2023-02-27T07:46:00.262Z,-0.40
2023-02-27T07:48:26.968Z,-0.40
2023-02-27T07:50:53.705Z,-0.40
2023-02-27T07:53:20.436Z,-0.40
2023-02-27T07:55:48.489Z,-0.30
2023-02-27T07:58:15.604Z,-0.30
2023-02-27T08:00:42.457Z,-0.30
2023-02-27T08:03:09.755Z,-0.30
2023-02-27T08:05:36.598Z,-0.30
2023-02-27T08:08:03.752Z,-0.20
2023-02-27T08:10:30.472Z,-0.20
2023-02-27T08:12:58.550Z,-0.10
2023-02-27T08:15:25.264Z,-0.10
2023-02-27T08:17:52.046Z,-0.20
2023-02-27T08:20:18.896Z,-0.10
2023-02-27T08:22:45.657Z,-0.10
2023-02-27T08:25:12.388Z,-0.20
2023-02-27T08:27:39.718Z,-0.10
2023-02-27T08:30:10.956Z,-0.10
2023-02-27T08:32:38.088Z,-0.10
2023-02-27T08:35:05.673Z,-0.10
2023-02-27T08:37:32.499Z,-0.10
2023-02-27T08:39:59.304Z,-0.10
2023-02-27T08:42:27.001Z,-0.10
2023-02-27T08:44:53.754Z,-0.20
2023-02-27T08:47:21.873Z,-0.20
2023-02-27T08:49:48.628Z,-0.10
2023-02-27T08:52:15.417Z,-0.20
2023-02-27T08:54:42.144Z,-0.20
2023-02-27T08:57:08.850Z,-0.20
2023-02-27T08:59:35.596Z,-0.20
2023-02-27T09:02:02.350Z,-0.10
2023-02-27T09:04:30.491Z,-0.10
2023-02-27T09:06:57.394Z,-0.10
2023-02-27T09:09:24.328Z,-0.10
2023-02-27T09:11:51.288Z,-0.10
2023-02-27T09:14:18.098Z,-0.10
2023-02-27T09:16:45.169Z,-0.10
2023-02-27T09:19:12.270Z,0.00
2023-02-27T09:21:40.379Z,0.00
2023-02-27T09:24:19.281Z,0.00
2023-02-27T09:26:48.105Z,0.00
2023-02-27T09:29:15.204Z,0.00
2023-02-27T09:31:41.963Z,-0.10
2023-02-27T09:34:08.738Z,-0.10
2023-02-27T09:36:35.495Z,-0.10
2023-02-27T09:39:03.778Z,-0.10
2023-02-27T09:41:55.151Z,-0.10
2023-02-27T09:44:44.833Z,-0.10
2023-02-27T09:47:17.817Z,0.00
2023-02-27T09:49:59.919Z,0.00
2023-02-27T09:52:27.808Z,0.00
2023-02-27T09:54:56.409Z,0.00
2023-02-27T09:57:33.822Z,-0.10
2023-02-27T10:00:07.145Z,-0.10
2023-02-27T10:02:44.749Z,-0.10
2023-02-27T10:05:22.795Z,-0.10
2023-02-27T10:07:58.400Z,-0.10
2023-02-27T10:10:32.070Z,0.00
2023-02-27T10:13:23.948Z,0.00
2023-02-27T10:15:54.004Z,-0.10
2023-02-27T10:18:29.024Z,0.00
2023-02-27T10:21:00.044Z,-0.10
2023-02-27T10:23:35.726Z,0.00
2023-02-27T10:26:04.856Z,0.00
2023-02-27T10:28:32.910Z,0.00
2023-02-27T10:31:01.379Z,0.00
2023-02-27T10:33:35.406Z,-0.10
2023-02-27T10:36:03.408Z,0.00
2023-02-27T10:38:34.619Z,0.00
2023-02-27T10:41:04.103Z,0.00
2023-02-27T10:43:31.008Z,0.00
2023-02-27T10:46:01.542Z,0.00
2023-02-27T10:48:28.493Z,0.00
2023-02-27T10:51:20.521Z,0.00
2023-02-27T10:53:47.324Z,0.00
2023-02-27T10:56:19.162Z,0.10
2023-02-27T10:58:46.074Z,0.10
2023-02-27T11:01:13.155Z,0.10
2023-02-27T11:03:42.202Z,0.10
2023-02-27T11:06:12.514Z,0.00
2023-02-27T11:08:39.530Z,0.10
2023-02-27T11:11:08.200Z,0.10
2023-02-27T11:13:38.050Z,0.10
2023-02-27T11:16:09.564Z,0.20
2023-02-27T11:18:38.386Z,0.10
2023-02-27T11:21:15.771Z,0.20
2023-02-27T11:23:54.350Z,0.20
2023-02-27T11:26:24.625Z,0.20
2023-02-27T11:29:12.136Z,0.20
2023-02-27T11:31:40.087Z,0.20
2023-02-27T11:34:07.558Z,0.30
2023-02-27T11:36:42.829Z,0.30
2023-02-27T11:39:22.809Z,0.30
2023-02-27T11:41:50.290Z,0.30
2023-02-27T11:44:38.713Z,0.30
2023-02-27T11:47:16.255Z,0.40
2023-02-27T11:50:04.888Z,0.40
2023-02-27T11:52:38.013Z,0.30
2023-02-27T11:55:10.218Z,0.30
2023-02-27T11:57:39.862Z,0.30
2023-02-27T12:00:18.669Z,0.30
2023-02-27T12:02:51.175Z,0.30
2023-02-27T12:05:19.654Z,0.30
2023-02-27T12:07:54.161Z,0.30
2023-02-27T12:10:24.836Z,0.30
2023-02-27T12:12:56.505Z,0.30
2023-02-27T12:15:30.607Z,0.30
2023-02-27T12:18:05.573Z,0.40
2023-02-27T12:20:37.616Z,0.30
2023-02-27T12:23:13.594Z,0.40
2023-02-27T12:25:45.747Z,0.30
2023-02-27T12:28:29.346Z,0.30
2023-02-27T12:31:07.513Z,0.30
2023-02-27T12:33:40.583Z,0.30
2023-02-27T12:36:11.482Z,0.40
2023-02-27T12:38:38.761Z,0.40
2023-02-27T12:41:33.581Z,0.40
2023-02-27T12:44:26.951Z,0.40
2023-02-27T12:47:03.152Z,0.40
2023-02-27T12:49:39.689Z,0.40
2023-02-27T12:52:23.553Z,0.40
2023-02-27T12:55:05.893Z,0.40
2023-02-27T12:57:45.260Z,0.40
2023-02-27T13:00:14.798Z,0.40
2023-02-27T13:02:58.605Z,0.40
2023-02-27T13:05:32.951Z,0.40
2023-02-27T13:08:09.341Z,0.50
2023-02-27T13:10:41.123Z,0.50
2023-02-27T13:13:16.340Z,0.50
2023-02-27T13:15:50.182Z,0.50
2023-02-27T13:18:31.763Z,0.60
2023-02-27T13:21:03.512Z,0.50
2023-02-27T13:23:39.808Z,0.50
2023-02-27T13:26:13.574Z,0.50
2023-02-27T13:28:40.693Z,0.60
2023-02-27T13:31:14.075Z,0.60
2023-02-27T13:33:48.466Z,0.50
2023-02-27T13:36:23.183Z,0.50
2023-02-27T13:38:52.396Z,0.50
2023-02-27T13:41:36.171Z,0.50
2023-02-27T13:44:47.666Z,0.60
2023-02-27T13:47:39.238Z,0.60
2023-02-27T13:50:48.644Z,0.60
2023-02-27T13:53:19.018Z,0.50
2023-02-27T13:55:46.309Z,0.60
2023-02-27T13:58:18.620Z,0.60
2023-02-27T14:00:58.429Z,0.60
2023-02-27T14:03:27.517Z,0.60
2023-02-27T14:05:58.215Z,0.50
2023-02-27T14:08:27.699Z,0.60
2023-02-27T14:10:59.369Z,0.60
2023-02-27T14:13:58.009Z,0.60
2023-02-27T14:16:53.672Z,0.60
2023-02-27T14:19:43.593Z,0.60
2023-02-27T14:22:56.194Z,0.60
2023-02-27T14:25:31.726Z,0.60
2023-02-27T14:28:00.077Z,0.60
2023-02-27T14:30:33.325Z,0.60
2023-02-27T14:33:10.521Z,0.60
2023-02-27T14:35:38.031Z,0.60
2023-02-27T14:38:11.831Z,0.60
2023-02-27T14:40:47.166Z,0.60
2023-02-27T14:43:23.779Z,0.60
2023-02-27T14:45:51.458Z,0.60
2023-02-27T14:48:26.640Z,0.60
2023-02-27T14:50:54.525Z,0.70
2023-02-27T14:53:26.409Z,0.70
2023-02-27T14:55:54.718Z,0.60
2023-02-27T14:58:22.513Z,0.60
2023-02-27T15:00:59.340Z,0.60
2023-02-27T15:03:32.821Z,0.60
2023-02-27T15:06:02.220Z,0.60
2023-02-27T15:08:34.691Z,0.60
2023-02-27T15:11:02.538Z,0.60
2023-02-27T15:13:32.262Z,0.60
2023-02-27T15:16:21.778Z,0.60
2023-02-27T15:18:49.985Z,0.60
2023-02-27T15:21:18.746Z,0.60
2023-02-27T15:23:54.179Z,0.60
2023-02-27T15:26:21.073Z,0.60
2023-02-27T15:28:49.004Z,0.60
2023-02-27T15:31:21.583Z,0.60
2023-02-27T15:33:49.285Z,0.60
2023-02-27T15:36:20.459Z,0.60
2023-02-27T15:39:06.571Z,0.60
2023-02-27T15:41:34.125Z,0.70
2023-02-27T15:44:02.378Z,0.60
2023-02-27T15:46:29.617Z,0.60
2023-02-27T15:48:56.639Z,0.60
2023-02-27T15:51:25.624Z,0.60
2023-02-27T15:53:58.071Z,0.60
2023-02-27T15:56:28.438Z,0.60
2023-02-27T15:58:56.001Z,0.60
2023-02-27T16:01:24.821Z,0.60
2023-02-27T16:03:54.407Z,0.60
2023-02-27T16:06:25.373Z,0.60
2023-02-27T16:08:56.214Z,0.60
2023-02-27T16:11:25.515Z,0.60
2023-02-27T16:13:53.296Z,0.60
2023-02-27T16:16:29.285Z,0.60
2023-02-27T16:18:58.289Z,0.60
2023-02-27T16:21:26.555Z,0.60
2023-02-27T16:23:55.091Z,0.60
2023-02-27T16:26:27.201Z,0.60
2023-02-27T16:28:55.740Z,0.50
2023-02-27T16:31:29.121Z,0.50
2023-02-27T16:33:58.340Z,0.50
2023-02-27T16:36:27.436Z,0.50
2023-02-27T16:38:56.253Z,0.50
2023-02-27T16:41:24.441Z,0.50
2023-02-27T16:43:53.318Z,0.50
2023-02-27T16:46:20.373Z,0.50
2023-02-27T16:48:50.760Z,0.50
2023-02-27T16:51:19.393Z,0.50
2023-02-27T16:53:47.275Z,0.50
2023-02-27T16:56:17.088Z,0.40
2023-02-27T16:58:45.742Z,0.50
2023-02-27T17:01:12.505Z,0.40
2023-02-27T17:03:39.459Z,0.40
2023-02-27T17:06:06.683Z,0.40
2023-02-27T17:08:33.759Z,0.40
2023-02-27T17:11:00.592Z,0.40
2023-02-27T17:13:28.801Z,0.40
2023-02-27T17:15:55.544Z,0.40
2023-02-27T17:18:22.246Z,0.40
2023-02-27T17:20:48.972Z,0.40
2023-02-27T17:23:15.706Z,0.40
2023-02-27T17:25:42.538Z,0.40
2023-02-27T17:28:10.186Z,0.40
2023-02-27T17:30:39.203Z,0.40
2023-02-27T17:33:05.960Z,0.40
2023-02-27T17:35:32.722Z,0.40
2023-02-27T17:37:59.495Z,0.40
2023-02-27T17:40:26.737Z,0.40
2023-02-27T17:42:53.420Z,0.40
2023-02-27T17:45:20.333Z,0.40
2023-02-27T17:47:48.983Z,0.40
2023-02-27T17:50:16.630Z,0.40
2023-02-27T17:52:43.353Z,0.40
2023-02-27T17:55:11.108Z,0.40
2023-02-27T17:57:39.122Z,0.30
2023-02-27T18:00:07.595Z,0.40
2023-02-27T18:02:34.383Z,0.40
2023-02-27T18:05:02.557Z,0.40
2023-02-27T18:07:29.289Z,0.40
2023-02-27T18:09:56.002Z,0.40
2023-02-27T18:12:22.809Z,0.40
2023-02-27T18:14:49.510Z,0.30
2023-02-27T18:17:16.392Z,0.30
2023-02-27T18:19:43.725Z,0.30
2023-02-27T18:22:12.433Z,0.30
2023-02-27T18:24:39.173Z,0.30
2023-02-27T18:27:05.876Z,0.30
2023-02-27T18:29:32.697Z,0.40
2023-02-27T18:31:59.544Z,0.40
2023-02-27T18:34:26.468Z,0.40
2023-02-27T18:36:53.209Z,0.40
2023-02-27T18:39:21.273Z,0.40
2023-02-27T18:41:48.018Z,0.40
2023-02-27T18:44:14.804Z,0.40
2023-02-27T18:46:41.765Z,0.40
2023-02-27T18:49:09.082Z,0.40
2023-02-27T18:51:36.256Z,0.30
2023-02-27T18:54:03.288Z,0.30
2023-02-27T18:56:32.376Z,0.30
2023-02-27T18:59:00.374Z,0.30
2023-02-27T19:01:30.373Z,0.40
2023-02-27T19:03:57.291Z,0.30
2023-02-27T19:06:24.374Z,0.40
2023-02-27T19:08:51.100Z,0.30
2023-02-27T19:11:22.053Z,0.40
2023-02-27T19:13:50.202Z,0.30
2023-02-27T19:16:16.967Z,0.40
2023-02-27T19:18:43.742Z,0.30
2023-02-27T19:21:11.391Z,0.30
2023-02-27T19:23:38.380Z,0.40
2023-02-27T19:26:05.399Z,0.40
2023-02-27T19:28:32.972Z,0.30
2023-02-27T19:31:06.491Z,0.40
2023-02-27T19:33:33.305Z,0.30
2023-02-27T19:36:00.183Z,0.30
2023-02-27T19:38:27.047Z,0.30
2023-02-27T19:40:53.770Z,0.30
2023-02-27T19:43:20.505Z,0.30
2023-02-27T19:45:47.248Z,0.30
2023-02-27T19:48:15.358Z,0.20
2023-02-27T19:50:42.078Z,0.20
2023-02-27T19:53:08.782Z,0.20
2023-02-27T19:55:35.524Z,0.20
2023-02-27T19:58:02.310Z,0.20
2023-02-27T20:00:29.060Z,0.20
2023-02-27T20:02:55.929Z,0.20
2023-02-27T20:05:24.073Z,0.20
2023-02-27T20:07:51.090Z,0.20
2023-02-27T20:10:18.447Z,0.20
2023-02-27T20:12:45.180Z,0.10
2023-02-27T20:15:12.278Z,0.20
2023-02-27T20:17:39.821Z,0.10
2023-02-27T20:20:07.967Z,0.10
2023-02-27T20:22:36.500Z,0.10
2023-02-27T20:25:03.565Z,0.10
2023-02-27T20:27:30.509Z,0.00
2023-02-27T20:29:57.367Z,0.00
2023-02-27T20:32:24.953Z,0.10
2023-02-27T20:34:53.156Z,0.00
2023-02-27T20:37:21.545Z,0.00
2023-02-27T20:39:50.280Z,0.10
2023-02-27T20:42:17.524Z,0.00
2023-02-27T20:44:44.525Z,0.00
2023-02-27T20:47:11.235Z,0.00
2023-02-27T20:49:38.700Z,0.10
2023-02-27T20:52:05.656Z,0.00
2023-02-27T20:54:32.862Z,0.00
2023-02-27T20:57:00.978Z,0.00
2023-02-27T20:59:27.812Z,0.10
2023-02-27T21:01:55.491Z,0.10
2023-02-27T21:04:24.559Z,0.10
2023-02-27T21:06:51.684Z,0.10
2023-02-27T21:09:18.432Z,0.10
2023-02-27T21:11:45.208Z,0.10
2023-02-27T21:14:13.306Z,0.10
2023-02-27T21:16:40.710Z,0.10
2023-02-27T21:19:07.986Z,0.10
2023-02-27T21:21:36.116Z,0.10
2023-02-27T21:24:03.551Z,0.10
2023-02-27T21:26:34.982Z,0.10
2023-02-27T21:29:05.344Z,0.10
2023-02-27T21:31:34.778Z,0.00
2023-02-27T21:34:03.262Z,0.00
2023-02-27T21:36:32.805Z,-0.10
2023-02-27T21:39:01.069Z,0.00
2023-02-27T21:41:29.023Z,-0.10
2023-02-27T21:43:58.244Z,-0.10
2023-02-27T21:46:25.031Z,-0.10
2023-02-27T21:48:53.283Z,0.00
2023-02-27T21:51:36.751Z,0.00
2023-02-27T21:54:05.864Z,-0.10
2023-02-27T21:56:32.614Z,-0.10
2023-02-27T21:59:00.799Z,0.00
2023-02-27T22:01:28.707Z,0.00
2023-02-27T22:03:57.191Z,0.00
2023-02-27T22:06:26.113Z,0.00
2023-02-27T22:08:54.639Z,0.00
2023-02-27T22:11:21.607Z,0.00
2023-02-27T22:13:48.671Z,-0.10
2023-02-27T22:16:18.145Z,-0.10
2023-02-27T22:18:45.651Z,-0.10
2023-02-27T22:21:16.337Z,-0.10
2023-02-27T22:23:43.819Z,-0.10
2023-02-27T22:26:13.134Z,-0.10
2023-02-27T22:28:39.930Z,-0.10
2023-02-27T22:31:08.857Z,-0.10
2023-02-27T22:33:36.245Z,-0.10
2023-02-27T22:36:06.204Z,-0.10
2023-02-27T22:38:34.717Z,-0.10
2023-02-27T22:41:06.611Z,-0.10
2023-02-27T22:43:33.520Z,-0.10
2023-02-27T22:46:00.354Z,-0.10
2023-02-27T22:48:27.138Z,-0.10
2023-02-27T22:50:57.836Z,-0.10
2023-02-27T22:53:24.686Z,-0.20
2023-02-27T22:55:56.341Z,-0.10
2023-02-27T22:58:23.714Z,-0.10
2023-02-27T23:00:50.509Z,-0.20
2023-02-27T23:03:17.713Z,-0.20
2023-02-27T23:05:45.724Z,-0.30
2023-02-27T23:08:12.441Z,-0.30
2023-02-27T23:10:39.517Z,-0.20
2023-02-27T23:13:07.856Z,-0.30
2023-02-27T23:15:35.294Z,-0.30
2023-02-27T23:18:02.204Z,-0.30
2023-02-27T23:20:28.973Z,-0.30
2023-02-27T23:22:55.766Z,-0.30
2023-02-27T23:25:22.598Z,-0.30
2023-02-27T23:27:49.317Z,-0.30
2023-02-27T23:30:17.886Z,-0.30
2023-02-27T23:32:44.734Z,-0.30
2023-02-27T23:35:12.455Z,-0.30
2023-02-27T23:37:39.572Z,-0.30
2023-02-27T23:40:07.796Z,-0.30
2023-02-27T23:42:34.786Z,-0.30
2023-02-27T23:45:01.588Z,-0.30
2023-02-27T23:47:29.787Z,-0.20
2023-02-27T23:49:56.535Z,-0.30
2023-02-27T23:52:23.289Z,-0.30
2023-02-27T23:54:49.992Z,-0.30
2023-02-27T23:57:16.773Z,-0.30
2023-02-27T23:59:43.558Z,-0.30
